createdAt,value
2022-10-18T00:00:57.327Z,12.99
2022-10-18T00:03:24.662Z,12.98
2022-10-18T00:05:52.556Z,12.98
2022-10-18T00:08:20.482Z,12.98
2022-10-18T00:10:48.455Z,12.99
2022-10-18T00:13:15.630Z,12.94
2022-10-18T00:15:54.941Z,12.93
2022-10-18T00:18:22.210Z,12.93
2022-10-18T00:21:03.981Z,12.97
2022-10-18T00:23:32.686Z,12.95
2022-10-18T00:26:04.160Z,12.94
2022-10-18T00:28:32.973Z,12.93
2022-10-18T00:31:25.041Z,12.90
2022-10-18T00:33:55.797Z,12.85
2022-10-18T00:36:23.352Z,12.82
2022-10-18T00:38:50.658Z,12.81
2022-10-18T00:41:20.630Z,12.74
2022-10-18T00:43:52.710Z,12.76
2022-10-18T00:46:19.850Z,12.74
2022-10-18T00:48:47.185Z,12.77
2022-10-18T00:51:15.599Z,12.78
2022-10-18T00:53:42.866Z,12.79
2022-10-18T00:56:10.028Z,12.77
2022-10-18T00:58:37.131Z,12.74
2022-10-18T01:01:04.367Z,12.71
2022-10-18T01:03:31.902Z,12.70
2022-10-18T01:05:59.118Z,12.69
2022-10-18T01:08:40.380Z,12.68
2022-10-18T01:11:18.835Z,12.66
2022-10-18T01:14:02.970Z,12.59
2022-10-18T01:16:41.546Z,12.58
2022-10-18T01:19:11.476Z,12.59
2022-10-18T01:21:55.427Z,12.60
2022-10-18T01:24:40.800Z,12.59
2022-10-18T01:27:19.125Z,12.57
2022-10-18T01:29:58.262Z,12.53
2022-10-18T01:32:29.006Z,12.52
2022-10-18T01:34:59.441Z,12.51
2022-10-18T01:37:28.422Z,12.50
2022-10-18T01:39:57.327Z,12.54
2022-10-18T01:42:24.848Z,12.54
2022-10-18T01:44:52.907Z,12.57
2022-10-18T01:47:20.495Z,12.61
2022-10-18T01:49:47.675Z,12.61
2022-10-18T01:52:16.608Z,12.64
2022-10-18T01:54:48.465Z,12.67
2022-10-18T01:57:20.137Z,12.65
2022-10-18T01:59:51.684Z,12.60
2022-10-18T02:02:39.115Z,12.64
2022-10-18T02:05:22.359Z,12.61
2022-10-18T02:08:00.183Z,12.57
2022-10-18T02:10:42.112Z,12.55
2022-10-18T02:13:11.836Z,12.50
2022-10-18T02:15:41.924Z,12.51
2022-10-18T02:18:13.140Z,12.46
2022-10-18T02:20:40.257Z,12.44
2022-10-18T02:23:08.645Z,12.45
2022-10-18T02:25:36.218Z,12.42
2022-10-18T02:28:04.002Z,12.42
2022-10-18T02:30:57.567Z,12.43
2022-10-18T02:33:35.856Z,12.46
2022-10-18T02:36:08.988Z,12.46
2022-10-18T02:38:36.804Z,12.44
2022-10-18T02:41:03.900Z,12.43
2022-10-18T02:43:31.095Z,12.41
2022-10-18T02:45:58.460Z,12.44
2022-10-18T02:48:25.779Z,12.39
2022-10-18T02:50:52.866Z,12.35
2022-10-18T02:53:20.165Z,12.33
2022-10-18T02:55:47.280Z,12.33
2022-10-18T02:58:14.774Z,12.32
2022-10-18T03:00:41.903Z,12.35
2022-10-18T03:03:08.979Z,12.35
2022-10-18T03:05:36.090Z,12.39
2022-10-18T03:08:03.335Z,12.43
2022-10-18T03:10:30.505Z,12.45
2022-10-18T03:12:57.694Z,12.46
2022-10-18T03:15:25.050Z,12.47
2022-10-18T03:17:52.204Z,12.49
2022-10-18T03:20:19.835Z,12.51
2022-10-18T03:22:47.226Z,12.56
2022-10-18T03:25:14.400Z,12.57
2022-10-18T03:27:41.770Z,12.64
2022-10-18T03:30:11.672Z,12.69
2022-10-18T03:32:39.089Z,12.71
2022-10-18T03:35:07.462Z,12.75
2022-10-18T03:37:34.828Z,12.75
2022-10-18T03:40:02.924Z,12.78
2022-10-18T03:42:30.386Z,12.83
2022-10-18T03:44:57.699Z,12.86
2022-10-18T03:47:24.892Z,12.86
2022-10-18T03:49:54.670Z,12.90
2022-10-18T03:52:24.301Z,12.93
2022-10-18T03:54:51.437Z,12.95
2022-10-18T03:57:18.644Z,13.01
2022-10-18T03:59:45.842Z,13.05
2022-10-18T04:02:13.008Z,13.11
2022-10-18T04:04:40.120Z,13.14
2022-10-18T04:07:07.243Z,13.20
2022-10-18T04:09:34.548Z,13.21
2022-10-18T04:12:01.617Z,13.18
2022-10-18T04:14:29.227Z,13.23
2022-10-18T04:16:56.562Z,13.26
2022-10-18T04:19:23.809Z,13.28
2022-10-18T04:21:50.929Z,13.30
2022-10-18T04:24:18.105Z,13.32
2022-10-18T04:26:46.332Z,13.35
2022-10-18T04:29:13.771Z,13.36
2022-10-18T04:31:40.848Z,13.39
2022-10-18T04:34:08.098Z,13.41
2022-10-18T04:36:35.317Z,13.43
2022-10-18T04:39:02.480Z,13.43
2022-10-18T04:41:29.701Z,13.39
2022-10-18T04:43:56.774Z,13.36
2022-10-18T04:46:23.961Z,13.37
2022-10-18T04:48:51.109Z,13.43
2022-10-18T04:51:18.358Z,13.48
2022-10-18T04:53:45.553Z,13.52
2022-10-18T04:56:12.737Z,13.55
2022-10-18T04:58:39.915Z,13.55
2022-10-18T05:01:07.766Z,13.58
2022-10-18T05:03:35.419Z,13.60
2022-10-18T05:06:03.440Z,13.61
2022-10-18T05:08:32.057Z,13.60
2022-10-18T05:11:00.038Z,13.60
2022-10-18T05:13:27.507Z,13.61
2022-10-18T05:15:54.645Z,13.61
2022-10-18T05:18:21.815Z,13.65
2022-10-18T05:20:48.971Z,13.65
2022-10-18T05:23:16.164Z,13.65
2022-10-18T05:25:43.848Z,13.64
2022-10-18T05:28:34.124Z,13.68
2022-10-18T05:31:02.829Z,13.65
2022-10-18T05:33:30.359Z,13.63
2022-10-18T05:35:57.734Z,13.58
2022-10-18T05:38:25.791Z,13.56
2022-10-18T05:40:53.063Z,13.62
2022-10-18T05:43:20.222Z,13.66
2022-10-18T05:45:48.996Z,13.68
2022-10-18T05:48:16.444Z,13.70
2022-10-18T05:50:44.155Z,13.70
2022-10-18T05:53:24.743Z,13.70
2022-10-18T05:56:02.517Z,13.60
2022-10-18T05:58:29.786Z,13.57
2022-10-18T06:01:01.023Z,13.59
2022-10-18T06:03:28.464Z,13.64
2022-10-18T06:06:06.015Z,13.70
2022-10-18T06:08:34.068Z,13.73
2022-10-18T06:11:15.612Z,13.77
2022-10-18T06:13:44.380Z,13.80
2022-10-18T06:16:12.383Z,13.84
2022-10-18T06:18:40.494Z,13.89
2022-10-18T06:21:08.584Z,13.91
2022-10-18T06:23:35.911Z,13.94
2022-10-18T06:26:06.739Z,13.93
2022-10-18T06:28:35.457Z,13.97
2022-10-18T06:31:03.260Z,14.03
2022-10-18T06:33:31.165Z,14.06
2022-10-18T06:36:00.160Z,14.09
2022-10-18T06:38:28.736Z,14.11
2022-10-18T06:40:56.943Z,14.14
2022-10-18T06:43:24.383Z,14.17
2022-10-18T06:45:52.399Z,14.22
2022-10-18T06:50:57.106Z,14.28
2022-10-18T06:53:25.744Z,14.31
2022-10-18T06:55:53.691Z,14.30
2022-10-18T06:58:21.039Z,14.30
2022-10-18T07:00:48.278Z,14.33
2022-10-18T07:03:15.472Z,14.33
2022-10-18T07:05:42.625Z,14.38
2022-10-18T07:08:09.795Z,14.40
2022-10-18T07:10:37.050Z,14.41
2022-10-18T07:13:30.454Z,14.43
2022-10-18T07:16:20.803Z,14.47
2022-10-18T07:18:49.918Z,14.49
2022-10-18T07:21:21.920Z,14.52
2022-10-18T07:23:49.956Z,14.55
2022-10-18T07:26:29.203Z,14.57
2022-10-18T07:28:59.083Z,14.58
2022-10-18T07:31:26.505Z,14.58
2022-10-18T07:33:53.675Z,14.60
2022-10-18T07:36:22.232Z,14.63
2022-10-18T07:38:50.040Z,14.62
2022-10-18T07:41:17.247Z,14.63
2022-10-18T07:43:47.202Z,14.64
2022-10-18T07:46:15.523Z,14.72
2022-10-18T07:48:42.867Z,14.73
2022-10-18T07:51:10.557Z,14.77
2022-10-18T07:53:38.091Z,14.82
2022-10-18T07:56:15.825Z,14.85
2022-10-18T07:58:44.307Z,14.86
2022-10-18T08:01:12.393Z,14.90
2022-10-18T08:03:40.540Z,14.99
2022-10-18T08:06:09.601Z,15.11
2022-10-18T08:08:38.188Z,15.22
2022-10-18T08:11:08.888Z,15.27
2022-10-18T08:13:36.286Z,15.33
2022-10-18T08:16:06.144Z,15.38
2022-10-18T08:18:33.335Z,15.45
2022-10-18T08:21:01.312Z,15.52
2022-10-18T08:23:28.615Z,15.52
2022-10-18T08:25:55.759Z,15.57
2022-10-18T08:28:23.050Z,15.60
2022-10-18T08:30:50.162Z,15.63
2022-10-18T08:33:17.410Z,15.61
2022-10-18T08:35:55.025Z,15.59
2022-10-18T08:38:22.164Z,15.57
2022-10-18T08:40:49.773Z,15.59
2022-10-18T08:43:26.408Z,15.60
2022-10-18T08:45:54.380Z,15.62
2022-10-18T08:48:30.675Z,15.66
2022-10-18T08:50:58.498Z,15.75
2022-10-18T08:53:51.875Z,15.81
2022-10-18T08:56:24.096Z,15.87
2022-10-18T08:58:51.315Z,15.94
2022-10-18T09:01:27.478Z,16.01
2022-10-18T09:04:10.290Z,16.06
2022-10-18T09:06:52.646Z,16.12
2022-10-18T09:09:39.012Z,16.16
2022-10-18T09:12:19.075Z,16.26
2022-10-18T09:15:07.803Z,16.37
2022-10-18T09:17:48.342Z,16.47
2022-10-18T09:20:22.975Z,16.59
2022-10-18T09:23:05.256Z,16.66
2022-10-18T09:25:37.421Z,16.72
2022-10-18T09:28:24.561Z,16.84
2022-10-18T09:31:05.642Z,16.94
2022-10-18T09:33:43.443Z,17.06
2022-10-18T09:36:21.205Z,17.22
2022-10-18T09:38:50.922Z,17.45
2022-10-18T09:41:39.543Z,17.65
2022-10-18T09:44:10.869Z,17.77
2022-10-18T09:46:45.565Z,17.85
2022-10-18T09:49:37.513Z,18.00
2022-10-18T09:52:09.236Z,18.12
2022-10-18T09:54:42.302Z,18.18
2022-10-18T09:57:12.093Z,18.19
2022-10-18T09:59:50.355Z,18.16
2022-10-18T10:02:22.898Z,18.11
2022-10-18T10:04:51.112Z,18.05
2022-10-18T10:07:32.546Z,17.95
2022-10-18T10:10:09.019Z,17.80
2022-10-18T10:12:38.228Z,17.72
2022-10-18T10:15:23.202Z,17.69
2022-10-18T10:17:57.439Z,17.61
2022-10-18T10:20:34.239Z,17.51
2022-10-18T10:23:07.853Z,17.43
2022-10-18T10:25:38.244Z,17.34
2022-10-18T10:28:12.031Z,17.32
2022-10-18T10:30:39.220Z,17.29
2022-10-18T10:33:06.959Z,17.25
2022-10-18T10:35:52.973Z,17.22
2022-10-18T10:38:28.491Z,17.15
2022-10-18T10:40:56.123Z,17.03
2022-10-18T10:43:42.794Z,16.93
2022-10-18T10:46:12.366Z,16.84
2022-10-18T10:48:46.093Z,16.79
2022-10-18T10:51:14.286Z,16.71
2022-10-18T10:54:22.104Z,16.65
2022-10-18T10:57:00.463Z,16.53
2022-10-18T10:59:31.435Z,16.42
2022-10-18T11:02:14.094Z,16.31
2022-10-18T11:04:42.168Z,16.20
2022-10-18T11:07:09.231Z,16.17
2022-10-18T11:09:43.669Z,16.14
2022-10-18T11:12:16.560Z,16.14
2022-10-18T11:14:47.159Z,16.08
2022-10-18T11:17:26.659Z,16.07
2022-10-18T11:20:07.133Z,16.07
2022-10-18T11:22:38.721Z,16.07
2022-10-18T11:25:06.056Z,16.08
2022-10-18T11:27:40.590Z,16.10
2022-10-18T11:30:27.318Z,16.09
2022-10-18T11:33:10.655Z,16.06
2022-10-18T11:35:49.817Z,16.07
2022-10-18T11:38:24.680Z,16.06
2022-10-18T11:41:06.761Z,15.96
2022-10-18T11:44:02.716Z,15.93
2022-10-18T11:46:50.465Z,15.90
2022-10-18T11:49:35.936Z,15.85
2022-10-18T11:52:24.261Z,15.80
2022-10-18T11:55:03.206Z,15.77
2022-10-18T11:57:55.796Z,15.71
2022-10-18T12:00:29.196Z,15.65
2022-10-18T12:03:12.331Z,15.63
2022-10-18T12:05:41.427Z,15.61
2022-10-18T12:08:11.077Z,15.58
2022-10-18T12:10:46.134Z,15.56
2022-10-18T12:13:39.562Z,15.56
2022-10-18T12:16:08.183Z,15.59
2022-10-18T12:18:36.896Z,15.60
2022-10-18T12:21:05.471Z,15.61
2022-10-18T12:23:35.033Z,15.62
2022-10-18T12:26:07.459Z,15.63
2022-10-18T12:28:41.562Z,15.64
2022-10-18T12:31:15.735Z,15.61
2022-10-18T12:33:46.758Z,15.60
2022-10-18T12:36:13.878Z,15.56
2022-10-18T12:38:42.885Z,15.51
2022-10-18T12:41:20.636Z,15.47
2022-10-18T12:43:53.386Z,15.41
2022-10-18T12:46:21.312Z,15.39
2022-10-18T12:49:04.057Z,15.35
2022-10-18T12:51:31.585Z,15.33
2022-10-18T12:54:01.670Z,15.28
2022-10-18T12:56:28.732Z,15.22
2022-10-18T12:59:18.758Z,15.20
2022-10-18T13:01:54.769Z,15.20
2022-10-18T13:04:28.107Z,15.19
2022-10-18T13:06:58.160Z,15.20
2022-10-18T13:09:37.248Z,15.21
2022-10-18T13:12:10.444Z,15.23
2022-10-18T13:15:25.607Z,15.26
2022-10-18T13:18:01.518Z,15.25
2022-10-18T13:20:38.464Z,15.28
2022-10-18T13:23:20.918Z,15.28
2022-10-18T13:25:56.819Z,15.32
2022-10-18T13:28:31.280Z,15.31
2022-10-18T13:31:22.380Z,15.32
2022-10-18T13:33:49.765Z,15.33
2022-10-18T13:36:22.499Z,15.34
2022-10-18T13:38:53.655Z,15.38
2022-10-18T13:44:02.400Z,15.43
2022-10-18T13:46:32.871Z,15.44
2022-10-18T13:49:29.184Z,15.46
2022-10-18T13:52:14.838Z,15.43
2022-10-18T13:55:00.488Z,15.44
2022-10-18T13:57:49.009Z,15.46
2022-10-18T14:00:26.378Z,15.45
2022-10-18T14:03:31.712Z,15.41
2022-10-18T14:06:24.109Z,15.39
2022-10-18T14:09:25.414Z,15.39
2022-10-18T14:12:23.078Z,15.40
2022-10-18T14:14:55.671Z,15.39
2022-10-18T14:17:30.461Z,15.42
2022-10-18T14:20:27.233Z,15.45
2022-10-18T14:23:12.932Z,15.46
2022-10-18T14:25:40.253Z,15.46
2022-10-18T14:28:17.321Z,15.48
2022-10-18T14:30:58.995Z,15.51
2022-10-18T14:33:29.229Z,15.51
2022-10-18T14:36:03.103Z,15.53
2022-10-18T14:38:30.427Z,15.47
2022-10-18T14:41:15.570Z,15.41
2022-10-18T14:43:43.899Z,15.40
2022-10-18T14:46:16.355Z,15.39
2022-10-18T14:48:58.403Z,15.39
2022-10-18T14:51:27.417Z,15.37
2022-10-18T14:53:55.070Z,15.35
2022-10-18T14:56:32.970Z,15.36
2022-10-18T14:59:05.416Z,15.35
2022-10-18T15:01:32.934Z,15.36
2022-10-18T15:04:02.414Z,15.37
2022-10-18T15:06:29.666Z,15.33
2022-10-18T15:08:58.134Z,15.32
2022-10-18T15:11:26.497Z,15.30
2022-10-18T15:13:55.878Z,15.29
2022-10-18T15:16:28.288Z,15.30
2022-10-18T15:19:07.069Z,15.30
2022-10-18T15:21:36.114Z,15.31
2022-10-18T15:24:19.692Z,15.32
2022-10-18T15:26:47.705Z,15.31
2022-10-18T15:29:21.997Z,15.31
2022-10-18T15:31:49.792Z,15.28
2022-10-18T15:34:20.788Z,15.27
2022-10-18T15:36:49.443Z,15.27
2022-10-18T15:39:24.940Z,15.28
2022-10-18T15:41:56.265Z,15.28
2022-10-18T15:44:25.229Z,15.26
2022-10-18T15:46:55.426Z,15.21
2022-10-18T15:49:25.155Z,15.16
2022-10-18T15:52:32.568Z,15.13
2022-10-18T15:55:31.109Z,15.14
2022-10-18T15:58:15.023Z,15.13
2022-10-18T16:00:43.958Z,15.10
2022-10-18T16:03:11.310Z,15.09
2022-10-18T16:05:39.086Z,15.08
2022-10-18T16:08:06.402Z,15.08
2022-10-18T16:10:33.560Z,15.04
2022-10-18T16:13:00.689Z,15.06
2022-10-18T16:15:27.797Z,15.06
2022-10-18T16:17:54.899Z,15.04
2022-10-18T16:20:24.628Z,15.00
2022-10-18T16:22:51.812Z,14.98
2022-10-18T16:25:18.998Z,14.97
2022-10-18T16:27:46.133Z,14.96
2022-10-18T16:30:15.402Z,14.95
2022-10-18T16:32:42.578Z,14.92
2022-10-18T16:35:12.085Z,14.87
2022-10-18T16:37:39.898Z,14.78
2022-10-18T16:40:34.621Z,14.72
2022-10-18T16:43:04.071Z,14.68
2022-10-18T16:45:31.335Z,14.65
2022-10-18T16:47:58.470Z,14.56
2022-10-18T16:50:25.602Z,14.51
2022-10-18T16:52:52.740Z,14.50
2022-10-18T16:55:24.996Z,14.46
2022-10-18T16:57:52.262Z,14.45
2022-10-18T17:00:22.121Z,14.40
2022-10-18T17:02:49.953Z,14.35
2022-10-18T17:05:18.205Z,14.30
2022-10-18T17:07:45.782Z,14.28
2022-10-18T17:10:17.706Z,14.29
2022-10-18T17:12:45.101Z,14.29
2022-10-18T17:15:12.829Z,14.28
2022-10-18T17:17:39.971Z,14.26
2022-10-18T17:20:08.156Z,14.26
2022-10-18T17:22:35.339Z,14.25
2022-10-18T17:25:02.458Z,14.24
2022-10-18T17:27:29.711Z,14.23
2022-10-18T17:29:57.646Z,14.21
2022-10-18T17:32:24.838Z,14.22
2022-10-18T17:34:52.055Z,14.23
2022-10-18T17:37:19.177Z,14.22
2022-10-18T17:39:46.404Z,14.21
2022-10-18T17:42:13.582Z,14.21
2022-10-18T17:44:40.803Z,14.20
2022-10-18T17:47:08.763Z,14.21
2022-10-18T17:49:35.939Z,14.22
2022-10-18T17:52:06.890Z,14.21
2022-10-18T17:54:34.341Z,14.19
2022-10-18T17:57:01.509Z,14.19
2022-10-18T17:59:29.011Z,14.16
2022-10-18T18:01:56.135Z,14.10
2022-10-18T18:04:24.541Z,14.04
2022-10-18T18:06:52.970Z,14.02
2022-10-18T18:09:21.170Z,13.99
2022-10-18T18:11:49.385Z,13.94
2022-10-18T18:14:16.618Z,13.99
2022-10-18T18:16:45.920Z,14.01
2022-10-18T18:19:13.913Z,14.07
2022-10-18T18:21:41.734Z,14.08
2022-10-18T18:24:10.235Z,14.03
2022-10-18T18:26:38.832Z,13.96
2022-10-18T18:29:06.133Z,13.95
2022-10-18T18:31:38.795Z,13.96
2022-10-18T18:34:10.008Z,13.99
2022-10-18T18:36:37.635Z,14.01
2022-10-18T18:39:05.769Z,14.02
2022-10-18T18:41:33.167Z,14.04
2022-10-18T18:44:05.132Z,14.06
2022-10-18T18:46:37.331Z,14.09
2022-10-18T18:49:06.181Z,14.10
2022-10-18T18:51:33.530Z,14.12
2022-10-18T18:54:00.822Z,14.13
2022-10-18T18:56:29.101Z,14.15
2022-10-18T18:58:58.729Z,14.16
2022-10-18T19:01:36.557Z,14.16
2022-10-18T19:04:05.086Z,14.14
2022-10-18T19:06:41.478Z,14.16
2022-10-18T19:09:21.939Z,14.16
2022-10-18T19:11:52.597Z,14.16
2022-10-18T19:16:59.025Z,14.13
2022-10-18T19:19:27.918Z,14.13
2022-10-18T19:22:03.683Z,14.12
2022-10-18T19:24:31.279Z,14.09
2022-10-18T19:27:04.111Z,14.11
2022-10-18T19:29:33.690Z,14.12
2022-10-18T19:32:04.007Z,14.17
2022-10-18T19:34:32.158Z,14.17
2022-10-18T19:36:59.319Z,14.17
2022-10-18T19:39:29.534Z,14.18
2022-10-18T19:41:58.475Z,14.22
2022-10-18T19:44:28.352Z,14.18
2022-10-18T19:46:55.799Z,14.20
2022-10-18T19:49:23.107Z,14.24
2022-10-18T19:51:50.224Z,14.23
2022-10-18T19:54:17.639Z,14.25
2022-10-18T19:56:44.844Z,14.26
2022-10-18T19:59:13.412Z,14.28
2022-10-18T20:01:41.034Z,14.31
2022-10-18T20:04:08.926Z,14.32
2022-10-18T20:06:37.171Z,14.34
2022-10-18T20:09:06.009Z,14.35
2022-10-18T20:11:33.598Z,14.33
2022-10-18T20:14:00.904Z,14.29
2022-10-18T20:16:30.467Z,14.28
2022-10-18T20:18:59.378Z,14.29
2022-10-18T20:21:27.616Z,14.28
2022-10-18T20:23:55.083Z,14.25
2022-10-18T20:26:22.704Z,14.23
2022-10-18T20:28:57.389Z,14.21
2022-10-18T20:31:27.217Z,14.21
2022-10-18T20:33:56.699Z,14.19
2022-10-18T20:36:24.126Z,14.15
2022-10-18T20:38:51.311Z,14.12
2022-10-18T20:41:24.808Z,14.09
2022-10-18T20:43:56.928Z,14.07
2022-10-18T20:46:24.685Z,14.01
2022-10-18T20:48:52.420Z,14.00
2022-10-18T20:51:20.522Z,13.91
2022-10-18T20:53:47.721Z,13.90
2022-10-18T20:56:22.717Z,13.89
2022-10-18T20:58:51.624Z,13.87
2022-10-18T21:01:30.295Z,13.86
2022-10-18T21:04:05.524Z,13.84
2022-10-18T21:06:43.199Z,13.83
2022-10-18T21:09:15.980Z,13.78
2022-10-18T21:11:45.811Z,13.75
2022-10-18T21:14:15.303Z,13.72
2022-10-18T21:16:43.753Z,13.71
2022-10-18T21:19:17.412Z,13.67
2022-10-18T21:21:47.157Z,13.65
2022-10-18T21:24:14.726Z,13.60
2022-10-18T21:26:41.887Z,13.54
2022-10-18T21:29:11.022Z,13.45
2022-10-18T21:31:40.210Z,13.41
2022-10-18T21:34:12.891Z,13.35
2022-10-18T21:36:41.067Z,13.34
2022-10-18T21:39:11.230Z,13.29
2022-10-18T21:41:38.330Z,13.28
2022-10-18T21:44:08.391Z,13.27
2022-10-18T21:46:39.419Z,13.26
2022-10-18T21:49:07.306Z,13.22
2022-10-18T21:51:34.674Z,13.19
2022-10-18T21:54:01.997Z,13.17
2022-10-18T21:56:31.846Z,13.15
2022-10-18T21:58:59.420Z,13.11
2022-10-18T22:01:37.104Z,13.06
2022-10-18T22:04:06.834Z,13.02
2022-10-18T22:09:06.249Z,12.97
2022-10-18T22:11:36.390Z,12.98
2022-10-18T22:14:03.745Z,12.98
2022-10-18T22:16:30.838Z,12.94
2022-10-18T22:18:59.763Z,12.93
2022-10-18T22:21:27.777Z,12.94
2022-10-18T22:23:59.332Z,12.96
2022-10-18T22:26:32.567Z,12.97
2022-10-18T22:29:08.628Z,13.01
2022-10-18T22:31:37.311Z,13.02
2022-10-18T22:34:11.072Z,13.02
2022-10-18T22:36:38.592Z,12.98
2022-10-18T22:39:06.779Z,13.01
2022-10-18T22:41:34.847Z,13.04
2022-10-18T22:44:03.671Z,13.10
2022-10-18T22:46:32.680Z,13.15
2022-10-18T22:49:00.410Z,13.21
2022-10-18T22:51:27.605Z,13.24
2022-10-18T22:53:54.803Z,13.24
2022-10-18T22:56:22.830Z,13.22
2022-10-18T22:58:50.576Z,13.21
2022-10-18T23:01:20.332Z,13.22
2022-10-18T23:03:52.411Z,13.22
2022-10-18T23:06:34.286Z,13.22
2022-10-18T23:09:06.034Z,13.22
2022-10-18T23:11:34.102Z,13.17
2022-10-18T23:14:03.785Z,13.13
2022-10-18T23:16:31.376Z,13.13
2022-10-18T23:18:59.332Z,13.08
2022-10-18T23:21:28.102Z,13.06
2022-10-18T23:23:55.933Z,12.99
2022-10-18T23:26:25.192Z,12.93
2022-10-18T23:28:53.156Z,12.91
2022-10-18T23:31:29.527Z,12.89
2022-10-18T23:33:59.069Z,12.89
2022-10-18T23:36:27.006Z,12.88
2022-10-18T23:38:54.505Z,12.83
2022-10-18T23:41:21.923Z,12.77
2022-10-18T23:43:49.123Z,12.74
2022-10-18T23:46:17.289Z,12.71
2022-10-18T23:48:44.958Z,12.70
2022-10-18T23:51:12.183Z,12.69
2022-10-18T23:53:39.751Z,12.71
2022-10-18T23:56:09.634Z,12.71
2022-10-18T23:58:37.331Z,12.70
